Time;durP1;ratioP1;P1;durP2;ratioP2;P2;SDS_P1;SDS_P2;PMS_P1;PMS_P2;Temp;Humidity;BMP_temperature;BMP_pressure;BME280_temperature;BME280_humidity;BME280_pressure;Samples;Min_cycle;Max_cycle;Signal;HPM_P1;HPM_P2
2021/11/18 00:01:23;;;;;;;18.27;15.03;;;;;;;9.93;61.10;98920.22;8292619;28;20244;-69
2021/11/18 00:05:27;;;;;;;18.87;15.40;;;;;;;9.88;61.15;98928.13;8320020;28;20236;-68
2021/11/18 00:09:30;;;;;;;18.33;15.87;;;;;;;9.94;61.48;98927.13;8319645;28;20237;-69
2021/11/18 00:13:37;;;;;;;19.80;16.10;;;;;;;9.87;61.44;98933.34;8319865;28;20299;-68
2021/11/18 00:17:40;;;;;;;21.07;16.13;;;;;;;9.96;61.19;98935.69;8319051;28;20260;-68
2021/11/18 00:21:43;;;;;;;19.13;15.63;;;;;;;9.98;61.25;98945.09;8312878;28;20404;-69
2021/11/18 00:25:47;;;;;;;22.83;16.57;;;;;;;9.91;61.58;98937.53;8315884;28;20516;-69
2021/11/18 00:29:51;;;;;;;22.80;17.57;;;;;;;9.84;61.66;98921.31;8318525;28;20241;-70
2021/11/18 00:33:55;;;;;;;24.07;17.53;;;;;;;9.93;61.82;98920.22;8318222;28;20237;-69
2021/11/18 00:37:59;;;;;;;22.70;18.43;;;;;;;9.95;61.94;98928.78;8287816;28;20243;-68
2021/11/18 00:42:02;;;;;;;29.20;20.00;;;;;;;9.88;61.98;98933.31;8285704;28;20508;-68
2021/11/18 00:46:07;;;;;;;28.60;20.30;;;;;;;9.94;62.61;98933.13;8287481;28;20261;-69
2021/11/18 00:50:10;;;;;;;28.07;20.73;;;;;;;9.93;62.24;98939.19;8287878;28;20300;-69
2021/11/18 00:54:15;;;;;;;32.17;22.40;;;;;;;9.89;62.59;98937.56;8285067;28;20237;-69
2021/11/18 00:58:18;;;;;;;33.70;23.00;;;;;;;9.75;63.36;98937.09;8285331;28;20244;-69
2021/11/18 01:02:22;;;;;;;33.00;22.60;;;;;;;9.90;62.65;98944.47;8285121;28;20229;-69
2021/11/18 01:06:25;;;;;;;35.40;23.83;;;;;;;9.84;62.77;98948.94;8285256;28;20233;-69
2021/11/18 01:10:32;;;;;;;37.73;24.43;;;;;;;9.83;62.86;98945.50;8284739;28;20536;-69
2021/11/18 01:14:36;;;;;;;34.83;23.97;;;;;;;9.72;63.20;98945.75;8285604;28;20237;-69
2021/11/18 01:18:40;;;;;;;33.90;22.73;;;;;;;9.64;63.88;98941.69;8285341;28;20244;-70
2021/11/18 01:22:44;;;;;;;32.97;23.20;;;;;;;9.66;63.37;98951.09;8285041;28;20234;-69
2021/11/18 01:26:48;;;;;;;34.60;23.10;;;;;;;9.71;63.43;98949.25;8285159;28;20537;-69
2021/11/18 01:30:51;;;;;;;34.20;22.77;;;;;;;9.77;63.53;98956.00;8285126;28;20245;-69
2021/11/18 01:34:55;;;;;;;31.30;20.83;;;;;;;9.84;63.32;98954.94;8284621;28;20241;-69
2021/11/18 01:38:58;;;;;;;31.83;21.83;;;;;;;9.93;63.10;98965.06;8284403;28;20241;-68
2021/11/18 01:43:01;;;;;;;29.90;21.20;;;;;;;9.91;62.83;98959.06;8284253;28;20260;-68
2021/11/18 01:47:05;;;;;;;30.87;21.90;;;;;;;9.90;62.98;98956.53;8285438;28;20237;-69
2021/11/18 01:51:09;;;;;;;30.97;21.80;;;;;;;9.87;63.10;98966.97;8284151;28;20242;-69
2021/11/18 01:55:13;;;;;;;30.03;21.83;;;;;;;9.90;63.13;98972.03;8284202;28;20253;-69
2021/11/18 01:59:19;;;;;;;29.27;21.27;;;;;;;9.83;63.46;98981.72;8283946;28;20233;-69
2021/11/18 02:03:23;;;;;;;32.53;21.27;;;;;;;9.70;64.02;99007.03;8283815;28;20237;-69
2021/11/18 02:07:27;;;;;;;29.27;21.13;;;;;;;9.71;63.93;99008.75;8283555;28;20236;-69
2021/11/18 02:11:34;;;;;;;31.00;21.60;;;;;;;9.72;63.79;98992.31;8283114;28;20239;-69
2021/11/18 02:15:39;;;;;;;33.17;23.30;;;;;;;9.54;64.54;98997.97;8283267;28;20590;-69
2021/11/18 02:19:44;;;;;;;30.27;22.03;;;;;;;9.76;64.02;99006.03;8283359;28;20237;-69
2021/11/18 02:23:51;;;;;;;31.23;21.83;;;;;;;9.84;63.23;99006.69;8282550;28;20423;-69
2021/11/18 02:27:55;;;;;;;29.93;21.63;;;;;;;9.89;63.31;98998.81;8282467;28;20233;-69
2021/11/18 02:32:00;;;;;;;29.80;22.00;;;;;;;9.76;63.95;98993.94;8282480;28;20431;-69
2021/11/18 02:36:03;;;;;;;31.77;21.60;;;;;;;9.86;63.31;98994.59;8281891;28;20236;-70
2021/11/18 02:40:10;;;;;;;32.63;21.67;;;;;;;9.87;63.33;98998.84;8281867;28;20237;-69
2021/11/18 02:44:12;;;;;;;32.07;23.10;;;;;;;9.72;63.83;98997.50;8282248;28;20233;-69
2021/11/18 02:48:16;;;;;;;32.03;20.57;;;;;;;9.84;64.13;99001.50;8282203;28;20378;-69
2021/11/18 02:52:21;;;;;;;32.17;22.17;;;;;;;9.98;63.02;99001.19;8281907;28;20238;-69
2021/11/18 02:56:28;;;;;;;28.87;21.77;;;;;;;9.95;62.95;99002.09;8282001;28;20234;-68
2021/11/18 03:00:34;;;;;;;30.67;22.17;;;;;;;9.57;63.97;99001.28;8281760;28;20233;-68
2021/11/18 03:04:37;;;;;;;30.07;21.10;;;;;;;9.82;63.36;98994.69;8281914;28;20260;-68
2021/11/18 03:08:42;;;;;;;29.73;20.60;;;;;;;9.85;63.43;98992.88;8282177;28;20245;-69
2021/11/18 03:12:47;;;;;;;29.93;21.60;;;;;;;9.77;63.17;98997.41;8281562;28;20408;-70
2021/11/18 03:16:50;;;;;;;28.10;20.83;;;;;;;9.93;62.86;99003.03;8281714;28;20237;-69
2021/11/18 03:20:54;;;;;;;31.07;21.10;;;;;;;9.95;62.87;98994.31;8281871;28;20244;-69
2021/11/18 03:24:57;;;;;;;31.43;21.43;;;;;;;10.06;62.52;99001.81;8281955;28;20248;-68
2021/11/18 03:29:02;;;;;;;29.40;20.47;;;;;;;10.06;62.44;98993.22;8281864;28;20242;-69
2021/11/18 03:33:08;;;;;;;25.60;20.63;;;;;;;10.06;62.40;98998.41;8285996;28;20229;-69
2021/11/18 03:37:11;;;;;;;28.63;21.90;;;;;;;9.99;62.58;99000.28;8287826;28;20241;-69
2021/11/18 03:41:15;;;;;;;29.60;21.97;;;;;;;9.95;62.26;99004.69;8287975;28;20237;-69
2021/11/18 03:45:21;;;;;;;29.30;22.23;;;;;;;10.31;61.36;98999.47;8288003;28;20241;-68
2021/11/18 03:49:25;;;;;;;31.03;21.03;;;;;;;10.39;60.96;99011.38;8287597;28;20233;-69
2021/11/18 03:53:29;;;;;;;25.57;20.50;;;;;;;10.34;61.16;99017.53;8287298;28;20236;-68
2021/11/18 03:57:31;;;;;;;27.23;20.17;;;;;;;10.32;61.18;99021.06;8287510;28;20385;-69
2021/11/18 04:01:36;;;;;;;26.03;19.80;;;;;;;10.32;61.30;99019.31;8287183;28;20571;-69
2021/11/18 04:05:40;;;;;;;25.30;20.53;;;;;;;10.31;61.02;99027.94;8287099;28;20574;-68
2021/11/18 04:09:44;;;;;;;25.53;19.50;;;;;;;10.33;61.01;99041.69;8286782;28;20238;-68
2021/11/18 04:13:46;;;;;;;27.93;20.40;;;;;;;10.40;60.94;99038.97;8286691;28;20242;-68
2021/11/18 04:17:51;;;;;;;28.77;21.93;;;;;;;10.15;61.68;99037.00;8286760;28;20244;-69
2021/11/18 04:21:55;;;;;;;28.07;19.73;;;;;;;10.31;61.41;99040.06;8286989;28;20237;-69
2021/11/18 04:25:59;;;;;;;26.27;19.77;;;;;;;10.25;61.49;99051.38;8286737;28;20241;-69
2021/11/18 04:30:04;;;;;;;25.60;19.60;;;;;;;10.14;61.77;99050.81;8286639;28;20571;-68
2021/11/18 04:34:08;;;;;;;24.03;18.30;;;;;;;10.38;61.38;99057.13;8285792;28;20411;-69
2021/11/18 04:38:11;;;;;;;25.83;19.53;;;;;;;10.40;61.08;99063.13;8286074;28;20237;-69
2021/11/18 04:42:16;;;;;;;23.43;19.30;;;;;;;10.38;61.30;99070.09;8285229;28;20234;-68
2021/11/18 04:46:20;;;;;;;23.83;19.30;;;;;;;10.24;61.17;99062.63;8286231;28;20423;-69
2021/11/18 04:50:25;;;;;;;23.97;19.90;;;;;;;10.24;61.36;99065.22;8285810;28;20249;-69
2021/11/18 04:54:28;;;;;;;24.60;18.67;;;;;;;10.39;60.64;99057.97;8285768;28;20422;-69
2021/11/18 04:58:31;;;;;;;24.33;19.33;;;;;;;10.27;60.89;99053.94;8285282;28;20238;-69
2021/11/18 05:02:34;;;;;;;23.10;18.73;;;;;;;10.23;60.96;99068.69;8284479;28;20248;-69
2021/11/18 05:06:39;;;;;;;26.90;19.40;;;;;;;10.28;61.11;99071.16;8284877;28;20238;-69
2021/11/18 05:10:43;;;;;;;24.73;20.30;;;;;;;10.25;61.09;99074.69;8284704;28;20436;-69
2021/11/18 05:14:46;;;;;;;28.40;19.73;;;;;;;10.03;61.85;99087.28;8284767;28;20247;-69
2021/11/18 05:18:49;;;;;;;25.93;19.73;;;;;;;10.13;61.37;99078.44;8284896;28;20240;-69
2021/11/18 05:22:54;;;;;;;30.20;21.30;;;;;;;10.18;61.37;99083.50;8284523;28;20233;-68
2021/11/18 05:26:57;;;;;;;24.57;19.87;;;;;;;10.24;61.50;99077.31;8284547;28;20237;-69
2021/11/18 05:31:01;;;;;;;24.83;21.00;;;;;;;10.22;60.98;99081.69;8284702;28;20233;-69
2021/11/18 05:35:05;;;;;;;28.17;21.37;;;;;;;10.17;61.87;99081.81;8283845;28;20292;-69
2021/11/18 05:39:10;;;;;;;26.10;21.10;;;;;;;10.23;61.28;99076.47;8283976;28;20233;-69
2021/11/18 05:43:13;;;;;;;29.37;22.40;;;;;;;10.20;62.08;99089.47;8284096;28;20233;-69
2021/11/18 05:47:16;;;;;;;26.10;21.53;;;;;;;10.33;61.30;99085.72;8284070;28;20244;-69
2021/11/18 05:51:19;;;;;;;27.27;21.93;;;;;;;10.35;61.60;99096.03;8283898;28;20244;-68
2021/11/18 05:55:27;;;;;;;30.67;23.43;;;;;;;10.16;61.35;99093.03;8283453;28;20248;-69
2021/11/18 05:59:30;;;;;;;29.03;22.07;;;;;;;10.32;61.36;99085.78;8284109;28;20229;-69
2021/11/18 06:03:34;;;;;;;31.53;22.57;;;;;;;10.27;61.56;99085.00;8289478;28;20230;-69
2021/11/18 06:07:37;;;;;;;29.90;21.80;;;;;;;10.33;60.92;99088.31;8300270;28;20452;-69
2021/11/18 06:11:43;;;;;;;28.03;22.30;;;;;;;10.29;61.05;99089.25;8288177;28;20225;-69
2021/11/18 06:15:47;;;;;;;29.53;22.20;;;;;;;10.37;61.00;99096.84;8297866;28;20540;-68
2021/11/18 06:19:50;;;;;;;27.90;22.10;;;;;;;10.37;61.17;99110.66;8297868;28;20245;-69
2021/11/18 06:23:53;;;;;;;26.97;21.87;;;;;;;10.34;60.86;99128.88;8304116;28;20562;-69
2021/11/18 06:27:57;;;;;;;26.03;22.10;;;;;;;10.41;60.64;99126.97;8315526;28;20232;-68
2021/11/18 06:32:03;;;;;;;28.37;21.60;;;;;;;10.36;61.10;99140.03;8305329;28;20539;-69
2021/11/18 06:36:06;;;;;;;29.10;22.00;;;;;;;10.41;60.78;99147.69;8292981;28;20529;-69
2021/11/18 06:40:12;;;;;;;28.10;22.57;;;;;;;10.37;60.81;99152.06;8296178;28;20228;-69
2021/11/18 06:44:18;;;;;;;27.30;21.53;;;;;;;10.27;61.49;99155.75;8281547;28;20226;-68
2021/11/18 06:48:23;;;;;;;26.17;20.97;;;;;;;10.36;61.11;99160.75;8282087;28;20614;-69
2021/11/18 06:52:26;;;;;;;26.13;20.77;;;;;;;10.30;61.13;99162.59;8282202;28;20439;-69
2021/11/18 06:56:29;;;;;;;27.47;21.47;;;;;;;10.33;61.03;99163.41;8281956;28;20244;-68
2021/11/18 07:00:35;;;;;;;31.93;21.93;;;;;;;10.48;60.17;99164.78;8281859;28;20567;-69
2021/11/18 07:04:38;;;;;;;24.77;21.77;;;;;;;10.52;60.43;99162.97;8281099;28;20233;-69
2021/11/18 07:08:41;;;;;;;26.17;20.57;;;;;;;10.61;60.10;99174.84;8281310;28;20248;-69
2021/11/18 07:12:44;;;;;;;27.27;21.27;;;;;;;10.53;60.46;99178.47;8281502;28;20240;-69
2021/11/18 07:16:48;;;;;;;29.77;21.07;;;;;;;10.43;60.43;99176.97;8281768;28;20559;-68
2021/11/18 07:20:52;;;;;;;27.87;20.27;;;;;;;10.52;60.30;99178.50;8281937;28;20389;-69
2021/11/18 07:24:55;;;;;;;25.13;20.60;;;;;;;10.55;59.89;99174.09;8281998;28;20348;-69
2021/11/18 07:28:59;;;;;;;25.73;19.80;;;;;;;10.57;59.89;99187.00;8281615;28;20313;-69
2021/11/18 07:33:04;;;;;;;29.90;21.13;;;;;;;10.63;59.52;99192.03;8281694;28;20237;-69
2021/11/18 07:37:07;;;;;;;30.93;20.80;;;;;;;10.57;59.79;99194.78;8281227;28;20229;-69
2021/11/18 07:41:11;;;;;;;26.00;20.50;;;;;;;10.59;59.90;99199.94;8281539;28;20233;-69
2021/11/18 07:45:15;;;;;;;29.73;21.07;;;;;;;10.61;60.10;99200.75;8281713;28;20233;-68
2021/11/18 07:49:19;;;;;;;28.27;21.63;;;;;;;10.55;59.69;99202.59;8281856;28;20239;-69
2021/11/18 07:53:22;;;;;;;27.17;21.40;;;;;;;10.60;59.86;99196.44;8282110;28;20244;-69
2021/11/18 07:57:25;;;;;;;30.57;21.20;;;;;;;10.54;59.86;99202.63;8282073;28;20516;-69
2021/11/18 08:01:28;;;;;;;30.17;22.40;;;;;;;10.61;59.75;99211.09;8283088;28;20233;-69
2021/11/18 08:05:33;;;;;;;29.23;21.27;;;;;;;10.45;59.95;99202.84;8289051;28;20245;-69
2021/11/18 08:09:36;;;;;;;26.77;20.73;;;;;;;10.62;59.98;99213.63;8293494;28;20245;-69
2021/11/18 08:13:39;;;;;;;26.57;20.33;;;;;;;10.52;59.70;99210.41;8283364;28;20253;-69
2021/11/18 08:17:43;;;;;;;25.93;20.27;;;;;;;10.50;59.54;99207.03;8282259;28;20234;-69
2021/11/18 08:21:48;;;;;;;24.67;19.50;;;;;;;10.55;59.51;99206.94;8285548;28;20319;-69
2021/11/18 08:25:51;;;;;;;23.90;18.27;;;;;;;10.81;59.20;99214.03;8285829;28;20248;-68
2021/11/18 08:29:54;;;;;;;24.80;18.83;;;;;;;10.81;59.09;99211.44;8285763;28;20237;-68
2021/11/18 08:33:57;;;;;;;25.33;19.37;;;;;;;10.73;58.92;99210.78;8285951;28;20260;-68
2021/11/18 08:38:02;;;;;;;24.63;19.23;;;;;;;10.79;58.59;99222.75;8285749;28;20236;-68
2021/11/18 08:42:07;;;;;;;25.30;19.83;;;;;;;10.89;58.42;99221.59;8284816;28;20536;-69
2021/11/18 08:46:12;;;;;;;23.57;19.67;;;;;;;10.72;58.95;99224.66;8285652;28;20237;-69
2021/11/18 08:50:18;;;;;;;25.90;18.83;;;;;;;10.94;58.43;99212.81;8285309;28;20607;-68
2021/11/18 08:54:25;;;;;;;18.13;8.30;;;;;;;12.80;67.34;99222.09;8285261;28;20233;-69
2021/11/18 08:58:32;;;;;;;16.97;12.23;;;;;;;13.62;59.62;99237.50;8285724;28;20240;-69
2021/11/18 09:02:35;;;;;;;18.53;13.10;;;;;;;14.23;55.02;99242.13;8284567;28;20266;-61
2021/11/18 09:06:39;;;;;;;18.17;13.33;;;;;;;14.23;53.42;99240.38;8285724;28;20544;-61
2021/11/18 09:10:43;;;;;;;23.50;17.90;;;;;;;14.28;52.43;99251.47;8285654;28;20247;-62
2021/11/18 09:14:46;;;;;;;57.93;41.10;;;;;;;14.01;52.33;99250.78;8285487;28;20241;-62
2021/11/18 09:18:50;;;;;;;49.30;35.03;;;;;;;14.43;51.61;99256.97;8285926;28;20245;-61
2021/11/18 09:22:57;;;;;;;20.40;16.40;;;;;;;13.06;52.23;99256.75;8285685;28;20233;-62
2021/11/18 09:27:03;;;;;;;22.60;17.17;;;;;;;12.51;53.38;99262.03;8285218;28;20234;-62
2021/11/18 09:31:09;;;;;;;24.00;17.00;;;;;;;12.46;54.32;99271.72;8284237;28;20524;-63
2021/11/18 09:35:15;;;;;;;21.07;16.50;;;;;;;12.12;55.12;99280.53;8285394;28;20555;-63
2021/11/18 09:39:18;;;;;;;20.37;14.90;;;;;;;11.94;55.89;99281.91;8284857;28;20543;-62
2021/11/18 09:43:58;;;;;;;22.23;14.53;;;;;;;11.90;55.77;99291.53;8284382;28;20233;-62
2021/11/18 09:48:30;;;;;;;22.70;14.67;;;;;;;11.80;55.67;99289.19;8282798;28;20257;-62
2021/11/18 09:52:43;;;;;;;20.73;15.47;;;;;;;11.96;56.28;99280.13;8284171;28;20516;-62
2021/11/18 09:57:12;;;;;;;22.40;15.60;;;;;;;12.04;55.33;99274.72;8283827;28;20433;-62
2021/11/18 10:01:57;;;;;;;20.27;16.30;;;;;;;11.90;55.56;99275.13;8283331;28;20229;-62
2021/11/18 10:06:26;;;;;;;19.83;16.10;;;;;;;11.92;56.08;99281.13;8249899;28;20506;-62
2021/11/18 10:10:32;;;;;;;23.97;16.43;;;;;;;12.10;55.79;99270.16;8237011;28;20236;-62
2021/11/18 10:14:54;;;;;;;21.73;16.33;;;;;;;11.93;55.39;99281.03;8251398;28;20345;-62
2021/11/18 10:19:03;;;;;;;24.87;16.47;;;;;;;11.90;55.67;99288.09;8251345;28;20435;-62
2021/11/18 10:23:10;;;;;;;21.97;16.07;;;;;;;11.63;56.00;99290.53;8268236;28;20228;-63
2021/11/18 10:27:19;;;;;;;21.27;15.33;;;;;;;11.95;54.60;99283.59;8283288;28;20246;-62
2021/11/18 10:31:26;;;;;;;20.87;15.20;;;;;;;11.83;55.28;99287.38;8282782;28;20251;-62
2021/11/18 10:35:36;;;;;;;22.63;15.77;;;;;;;11.88;54.27;99274.25;8283152;28;20229;-62
2021/11/18 10:39:46;;;;;;;21.77;16.87;;;;;;;11.99;54.69;99282.63;8282862;28;20300;-62
2021/11/18 10:44:21;;;;;;;23.50;16.37;;;;;;;12.00;53.73;99284.34;8282666;28;20241;-63
2021/11/18 10:48:29;;;;;;;24.77;15.23;;;;;;;11.90;54.58;99269.94;8232471;28;20240;-63
2021/11/18 10:52:37;;;;;;;21.97;15.97;;;;;;;11.92;54.31;99263.78;8282597;28;20234;-61
2021/11/18 10:57:00;;;;;;;22.37;16.77;;;;;;;11.80;54.02;99255.47;8282574;28;20247;-62
2021/11/18 11:01:25;;;;;;;24.23;16.77;;;;;;;11.88;53.66;99267.34;8282090;28;20422;-62
2021/11/18 11:05:39;;;;;;;22.07;16.40;;;;;;;11.72;54.04;99276.44;8250394;28;20296;-61
2021/11/18 11:09:49;;;;;;;21.43;16.00;;;;;;;11.72;54.11;99266.91;8250645;28;20253;-61
2021/11/18 11:14:55;;;;;;;21.63;15.40;;;;;;;11.71;54.19;99261.78;8250297;28;20242;-61
2021/11/18 11:19:04;;;;;;;22.57;16.07;;;;;;;11.76;54.13;99251.25;8119907;29;20237;-61
2021/11/18 11:23:11;;;;;;;20.63;16.00;;;;;;;11.49;54.38;99241.59;8197841;28;20230;-61
2021/11/18 11:27:52;;;;;;;20.13;15.60;;;;;;;11.60;54.44;99236.13;8257241;28;20229;-61
2021/11/18 11:32:04;;;;;;;18.90;15.23;;;;;;;11.76;53.85;99227.91;8281880;28;20237;-61
2021/11/18 11:36:12;;;;;;;21.33;15.23;;;;;;;11.60;54.28;99224.91;8281422;28;20529;-61
2021/11/18 11:40:21;;;;;;;20.73;14.93;;;;;;;11.74;54.64;99231.38;8281407;28;20237;-61
2021/11/18 11:44:34;;;;;;;20.60;15.70;;;;;;;11.47;54.73;99242.56;8281892;28;20240;-65
2021/11/18 11:49:03;;;;;;;19.40;15.80;;;;;;;11.68;54.39;99234.16;8288995;28;20544;-64
2021/11/18 11:53:10;;;;;;;24.10;16.70;;;;;;;11.69;55.04;99240.19;8284456;28;20291;-66
2021/11/18 11:57:21;;;;;;;26.03;16.57;;;;;;;11.45;55.54;99239.16;8287710;28;20245;-66
2021/11/18 12:01:33;;;;;;;23.77;17.13;;;;;;;11.41;55.31;99243.56;8287508;28;20234;-66
2021/11/18 12:05:39;;;;;;;22.03;16.43;;;;;;;11.53;55.24;99232.84;8287583;28;20233;-66
2021/11/18 12:10:04;;;;;;;22.90;17.70;;;;;;;11.57;54.73;99228.41;8287086;28;20241;-65
2021/11/18 12:14:13;;;;;;;21.17;15.83;;;;;;;11.62;55.43;99223.97;8287263;28;20233;-65
2021/11/18 12:18:24;;;;;;;20.93;15.33;;;;;;;11.59;54.28;99216.25;8287052;28;20472;-65
2021/11/18 12:22:34;;;;;;;21.00;14.53;;;;;;;11.52;54.58;99225.97;8287404;28;20425;-65
2021/11/18 12:26:52;;;;;;;25.43;15.47;;;;;;;11.58;54.46;99213.72;8287183;28;20240;-65
2021/11/18 12:31:18;;;;;;;19.43;15.30;;;;;;;11.44;54.73;99219.28;8287570;28;20336;-65
2021/11/18 12:35:46;;;;;;;18.73;14.43;;;;;;;11.33;54.94;99222.19;8279300;28;20233;-65
2021/11/18 12:40:05;;;;;;;22.93;14.47;;;;;;;11.34;54.81;99218.69;8286307;28;20245;-65
2021/11/18 12:44:35;;;;;;;18.20;12.50;;;;;;;11.34;54.25;99205.72;8286534;28;20230;-66
2021/11/18 12:49:07;;;;;;;22.17;14.27;;;;;;;11.18;54.34;99200.13;8284830;28;20245;-65
2021/11/18 12:53:29;;;;;;;21.20;14.37;;;;;;;11.29;54.18;99200.69;8252013;28;20229;-62
2021/11/18 12:57:34;;;;;;;20.73;14.90;;;;;;;11.32;54.50;99208.34;8285750;28;20241;-61
2021/11/18 13:02:03;;;;;;;19.47;14.70;;;;;;;11.14;54.51;99199.34;8285628;28;20238;-61
2021/11/18 13:06:53;;;;;;;19.67;15.70;;;;;;;11.42;53.91;99195.97;8284852;28;20232;-62
2021/11/18 13:11:41;;;;;;;21.27;14.80;;;;;;;11.35;54.10;99194.47;8285713;28;20429;-62
2021/11/18 13:16:08;;;;;;;23.03;16.00;;;;;;;11.21;53.92;99178.44;8270711;28;20570;-61
2021/11/18 13:20:34;;;;;;;24.70;17.20;;;;;;;11.49;54.57;99178.50;8284660;28;20237;-64
2021/11/18 13:24:51;;;;;;;21.20;15.67;;;;;;;11.34;54.85;99172.00;8285481;28;20233;-63
2021/11/18 13:29:19;;;;;;;21.67;16.10;;;;;;;11.40;54.94;99171.81;8285234;28;20548;-64
2021/11/18 13:33:28;;;;;;;18.70;15.20;;;;;;;11.42;55.09;99172.63;8284768;28;20328;-64
2021/11/18 13:37:37;;;;;;;22.13;15.23;;;;;;;11.17;55.44;99163.84;8290300;28;20241;-64
2021/11/18 13:41:44;;;;;;;23.93;15.10;;;;;;;11.33;55.42;99159.94;8292161;28;20433;-64
2021/11/18 13:46:04;;;;;;;21.50;16.80;;;;;;;11.34;55.09;99167.66;8294611;28;20228;-63
2021/11/18 13:50:16;;;;;;;21.87;16.70;;;;;;;11.31;54.88;99159.16;8297107;28;20591;-67
2021/11/18 13:54:29;;;;;;;21.00;13.57;;;;;;;11.10;53.76;99164.03;8287556;28;20226;-67
2021/11/18 13:58:35;;;;;;;20.43;16.67;;;;;;;11.31;54.22;99167.75;8286827;28;20567;-66
2021/11/18 14:02:58;;;;;;;22.40;15.63;;;;;;;11.26;54.11;99161.84;8284631;28;20237;-67
2021/11/18 14:07:06;;;;;;;19.23;14.20;;;;;;;11.12;54.29;99167.44;8284162;28;20587;-66
2021/11/18 14:11:11;;;;;;;17.23;12.90;;;;;;;11.25;54.66;99169.66;8283432;28;20406;-67
2021/11/18 14:15:19;;;;;;;15.60;12.63;;;;;;;11.19;54.34;99178.47;8283220;28;20241;-67
2021/11/18 14:19:28;;;;;;;14.30;11.57;;;;;;;11.35;53.94;99187.53;8283339;28;20252;-66
2021/11/18 14:23:34;;;;;;;15.33;12.57;;;;;;;11.30;53.99;99199.75;8283034;28;20245;-67
2021/11/18 14:27:37;;;;;;;16.63;13.13;;;;;;;11.24;53.94;99206.88;8282917;28;20241;-67
2021/11/18 14:31:45;;;;;;;16.90;12.90;;;;;;;11.28;54.46;99209.34;8282866;28;20576;-66
2021/11/18 14:35:55;;;;;;;19.33;13.73;;;;;;;11.27;54.54;99210.25;8287520;28;20230;-66
2021/11/18 14:40:00;;;;;;;16.80;13.30;;;;;;;11.30;54.71;99212.72;8285479;28;20317;-67
2021/11/18 14:44:06;;;;;;;17.23;14.33;;;;;;;11.42;54.62;99215.88;8285063;28;20217;-67
2021/11/18 14:48:13;;;;;;;18.63;14.87;;;;;;;11.24;54.84;99212.06;8290002;28;20225;-67
2021/11/18 14:52:30;;;;;;;18.70;13.70;;;;;;;11.16;54.90;99222.66;8296550;28;20221;-63
2021/11/18 14:56:35;;;;;;;20.40;14.47;;;;;;;11.12;54.83;99219.28;8287504;28;20229;-63
2021/11/18 15:00:43;;;;;;;17.70;13.97;;;;;;;11.26;54.44;99210.28;8296258;28;20432;-63
2021/11/18 15:04:46;;;;;;;19.60;14.30;;;;;;;11.28;54.43;99217.13;8297954;28;20229;-63
2021/11/18 15:08:52;;;;;;;19.03;14.70;;;;;;;11.29;54.66;99207.59;8297642;28;20237;-63
2021/11/18 15:12:55;;;;;;;22.77;15.93;;;;;;;11.30;54.73;99211.91;8307275;28;20232;-63
2021/11/18 15:16:58;;;;;;;19.50;16.43;;;;;;;11.12;54.75;99200.28;8314433;28;20239;-62
2021/11/18 15:21:01;;;;;;;17.87;14.13;;;;;;;11.22;54.68;99201.72;8314524;28;20237;-63
2021/11/18 15:25:08;;;;;;;19.03;14.23;;;;;;;11.23;54.47;99198.25;8314408;28;20236;-63
2021/11/18 15:29:13;;;;;;;20.70;15.17;;;;;;;11.26;54.75;99189.53;8294854;28;20368;-63
2021/11/18 15:33:17;;;;;;;18.30;13.40;;;;;;;11.12;54.97;99176.97;8288094;28;20233;-62
2021/11/18 15:37:22;;;;;;;18.90;15.00;;;;;;;11.23;54.39;99181.81;8288542;28;20536;-62
2021/11/18 15:41:31;;;;;;;15.57;12.33;;;;;;;11.09;54.56;99177.88;8288095;28;20419;-61
2021/11/18 15:45:34;;;;;;;15.53;13.00;;;;;;;11.08;54.20;99173.59;8311394;28;20237;-62
2021/11/18 15:49:38;;;;;;;17.73;13.93;;;;;;;11.04;53.90;99171.09;8318642;28;20428;-61
2021/11/18 15:53:43;;;;;;;19.13;14.07;;;;;;;11.10;54.24;99170.94;8316000;28;20570;-61
2021/11/18 15:57:49;;;;;;;20.03;15.53;;;;;;;10.99;54.44;99163.47;8320201;28;20236;-61
2021/11/18 16:01:55;;;;;;;18.97;15.80;;;;;;;11.04;54.69;99176.28;8320043;28;20244;-61
2021/11/18 16:05:58;;;;;;;20.73;17.30;;;;;;;10.96;55.03;99171.31;8308590;28;20233;-63
2021/11/18 16:10:01;;;;;;;17.10;14.47;;;;;;;10.77;54.93;99173.53;8312731;28;20241;-59
2021/11/18 16:14:07;;;;;;;19.17;16.00;;;;;;;10.92;55.07;99182.66;8318904;28;20578;-59
2021/11/18 16:18:17;;;;;;;16.40;11.63;;;;;;;10.69;54.28;99180.66;8319568;28;20243;-60
2021/11/18 16:22:23;;;;;;;14.70;10.67;;;;;;;10.84;53.57;99184.59;8319393;28;20437;-59
2021/11/18 16:26:28;;;;;;;12.13;9.90;;;;;;;10.78;53.78;99177.84;8319522;28;20255;-64
2021/11/18 16:30:35;;;;;;;13.53;9.43;;;;;;;10.63;54.27;99181.66;8303866;28;20230;-63
2021/11/18 16:34:40;;;;;;;13.43;10.27;;;;;;;10.75;53.77;99196.06;8289175;28;20226;-64
2021/11/18 16:38:44;;;;;;;10.73;8.73;;;;;;;10.94;52.99;99188.66;8293701;28;20447;-63
2021/11/18 16:42:47;;;;;;;12.70;9.47;;;;;;;10.90;52.98;99197.41;8299551;28;20225;-63
2021/11/18 16:46:51;;;;;;;11.80;9.80;;;;;;;11.07;52.80;99190.03;8290578;28;20540;-64
2021/11/18 16:50:59;;;;;;;12.07;9.43;;;;;;;11.06;52.70;99209.09;8286321;28;20241;-63
2021/11/18 16:55:04;;;;;;;13.00;10.50;;;;;;;11.08;52.80;99214.19;8283612;28;20244;-63
2021/11/18 16:59:10;;;;;;;12.63;10.00;;;;;;;11.07;52.93;99223.72;8285428;28;20252;-63
2021/11/18 17:03:15;;;;;;;14.27;10.87;;;;;;;11.11;52.65;99233.13;8318032;28;20323;-63
2021/11/18 17:07:18;;;;;;;13.43;11.10;;;;;;;11.01;53.28;99233.41;8313966;28;20238;-63
2021/11/18 17:11:24;;;;;;;15.13;12.70;;;;;;;11.11;52.75;99217.56;8285284;28;20320;-63
2021/11/18 17:15:29;;;;;;;14.77;11.70;;;;;;;11.11;53.12;99232.28;8298629;28;20300;-63
2021/11/18 17:19:34;;;;;;;13.43;10.67;;;;;;;11.19;53.01;99229.47;8296876;28;20536;-63
2021/11/18 17:23:39;;;;;;;14.77;11.93;;;;;;;11.08;52.90;99234.94;8301150;28;20231;-63
2021/11/18 17:27:43;;;;;;;15.60;10.40;;;;;;;10.95;53.05;99239.63;8300742;28;20228;-63
2021/11/18 17:31:46;;;;;;;12.87;9.17;;;;;;;11.00;53.42;99237.72;8300217;28;20233;-60
2021/11/18 17:35:53;;;;;;;13.67;10.20;;;;;;;10.99;53.31;99215.31;8284785;28;20249;-59
2021/11/18 17:39:59;;;;;;;12.57;10.00;;;;;;;10.92;53.88;99224.97;8284780;28;20244;-59
2021/11/18 17:44:03;;;;;;;13.43;11.63;;;;;;;10.93;54.05;99226.69;8284550;28;20233;-59
2021/11/18 17:48:06;;;;;;;15.57;11.60;;;;;;;10.96;53.96;99236.13;8283861;28;20225;-59
2021/11/18 17:52:13;;;;;;;11.83;10.50;;;;;;;10.69;54.71;99240.25;8283636;28;20336;-59
2021/11/18 17:56:17;;;;;;;11.73;10.53;;;;;;;10.72;54.90;99246.22;8284196;28;20237;-59
2021/11/18 18:00:26;;;;;;;11.60;9.90;;;;;;;10.42;55.50;99245.22;8284056;28;20245;-59
2021/11/18 18:04:29;;;;;;;9.90;8.20;;;;;;;10.32;55.22;99267.88;8284186;28;20233;-60
2021/11/18 18:08:36;;;;;;;10.00;8.57;;;;;;;10.52;54.83;99275.16;8283848;28;20238;-59
2021/11/18 18:12:43;;;;;;;11.00;8.77;;;;;;;10.59;54.96;99288.84;8283992;28;20253;-60
2021/11/18 18:16:49;;;;;;;11.40;8.60;;;;;;;10.67;54.60;99283.50;8283878;28;20247;-59
2021/11/18 18:20:54;;;;;;;13.00;9.40;;;;;;;10.39;55.09;99270.31;8283523;28;20276;-59
2021/11/18 18:25:00;;;;;;;13.57;10.50;;;;;;;10.35;55.00;99272.13;8283902;28;20390;-59
2021/11/18 18:29:06;;;;;;;11.30;9.13;;;;;;;10.57;53.96;99269.91;8283937;28;20495;-59
2021/11/18 18:33:09;;;;;;;10.80;9.00;;;;;;;10.54;53.94;99262.19;8282788;28;20234;-60
2021/11/18 18:37:15;;;;;;;11.63;9.00;;;;;;;10.70;53.98;99263.53;8282996;28;20516;-59
2021/11/18 18:41:25;;;;;;;12.80;9.90;;;;;;;10.37;54.40;99268.59;8283198;28;20241;-59
2021/11/18 18:45:28;;;;;;;13.20;9.53;;;;;;;10.67;54.05;99260.16;8283522;28;20284;-59
2021/11/18 18:49:34;;;;;;;14.40;11.20;;;;;;;10.59;54.06;99241.38;8282550;28;20271;-59
2021/11/18 18:53:38;;;;;;;13.13;10.03;;;;;;;10.59;54.42;99243.97;8282624;28;20233;-59
2021/11/18 18:57:42;;;;;;;15.30;11.00;;;;;;;10.73;53.78;99240.13;8282623;28;20237;-59
2021/11/18 19:01:49;;;;;;;13.77;10.63;;;;;;;10.61;54.10;99237.00;8281368;28;20244;-59